x

Shp - Shell Point, Fl (shpf1) Weather Station

6:54pm - Mon 24th Jul 2017 All times are CDT. -5 hours from GMT.

  • Wind
    15mph, 20mph gusts
  • Air Temp 86°f
  • Sea Pressure 1015.4mb
  • Shp - Shell Point, Fl
  • Shp - Shell Point, Fl

More Historic Weather Station data

Upgrade to MSW Pro to gain access to the past 30 days of data for over 8000 Wavebouys and Weather Stations around the globe.

Join Pro

Comparision Forecast

View Surf forecast
   
Mon 07/24 6:54pm 15 20 mph 1015.4mb 86f
6:48pm 11 15 mph 1015.2mb 87f
5:54pm 15 18 mph 1014.7mb 87f
5:48pm 14 18 mph 1014.7mb 87f
4:54pm 16 21 mph 1014.6mb 88f
4:48pm 21 30 mph 1014.5mb 88f
3:54pm 15 21 mph 1014.8mb 85f
3:48pm 16 20 mph 1014.9mb 85f
2:54pm 15 21 mph 1015mb 87f
2:48pm 15 20 mph 1015.1mb 87f
1:54pm 11 16 mph 1015.6mb 85f
1:48pm 14 17 mph 1015.7mb 85f
12:54pm 16 22 mph 1015.9mb 85f
12:48pm 15 20 mph 1016.1mb 85f
11:54am 16 18 mph 1016.3mb 83f
11:48am 15 18 mph 1016.3mb 83f
10:54am 9 14 mph 1016.3mb 85f
10:48am 11 13 mph 1016.4mb 85f
9:54am 11 15 mph 1016.3mb 84f
9:48am 11 15 mph 1016.2mb 83f
8:54am 9 11 mph 1015.8mb 82f
8:48am 9 13 mph 1015.8mb 82f
7:54am 13 15 mph 1016.1mb 80f
7:48am 14 16 mph 1016.1mb 80f
6:54am 10 13 mph 1015.5mb 80f
6:48am 11 16 mph 1015.5mb 80f
5:54am 7 9 mph 1015.2mb 80f
5:48am 6 8 mph 1015.2mb 80f
4:54am 7 9 mph 1014.8mb 80f
4:48am 8 10 mph 1014.8mb 80f
3:54am 7 9 mph 1014.5mb 81f
3:48am 7 8 mph 1014.5mb 81f
2:54am 8 11 mph 1014.4mb 81f
2:48am 8 10 mph 1014.4mb 81f
1:54am 10 14 mph 1014.6mb 81f
1:48am 11 13 mph 1014.6mb 82f
12:54am 11 14 mph 1015mb 82f
12:48am 11 15 mph 1014.9mb 82f
Sun 07/23 11:54pm 8 9 mph 1015mb 82f
11:48pm 7 9 mph 1014.9mb 82f
10:54pm 9 11 mph 1014.5mb 82f
10:48pm 9 10 mph 1014.6mb 81f
9:54pm 8 9 mph 1014.3mb 81f
9:48pm 9 11 mph 1014.3mb 81f
8:54pm 13 17 mph 1014.1mb 81f
8:48pm 13 16 mph 1014.2mb 82f
7:54pm 14 16 mph 1013.7mb 82f
7:48pm 14 18 mph 1013.8mb 82f
6:54pm 17 21 mph 1013.5mb 83f
6:48pm 15 20 mph 1013.5mb 83f
5:54pm 14 17 mph 1013.8mb 82f
5:48pm 13 16 mph 1013.8mb 82f
4:54pm 15 20 mph 1014.2mb 82f
4:48pm 13 17 mph 1014.3mb 82f
3:54pm 16 20 mph 1014mb 81f
3:48pm 14 18 mph 1014.1mb 81f
2:54pm 16 22 mph 1014.9mb 81f
2:48pm 14 21 mph 1015mb 81f
1:54pm 17 23 mph 1015.7mb 79f
1:48pm 18 23 mph 1015.7mb 79f
12:54pm 8 13 mph 1016.9mb 78f
11:54am 2 3 mph 1016.6mb 75f
11:48am 2 6 mph 1016.4mb 75f
10:54am 9 16 mph 1016.3mb 76f
10:48am 7 14 mph 1016.1mb 76f
9:54am 10 18 mph 1015.6mb 80f
9:48am 13 21 mph 1015.5mb 83f
8:54am 3 6 mph 1015.7mb 83f
8:48am 5 6 mph 1015.8mb 83f
7:54am 3 7 mph 1016mb 82f
7:48am 3 5 mph 1016mb 81f
6:54am 3 6 mph 1015.6mb 80f
6:48am 2 3 mph 1015.6mb 79f
5:54am 3 5 mph 1015.2mb 79f
5:48am 3 6 mph 1015.2mb 79f
4:54am 7 9 mph 1014.8mb 80f
4:48am 7 9 mph 1014.8mb 80f
3:54am 9 13 mph 1014.4mb 81f
3:48am 9 13 mph 1014.5mb 82f
2:54am 8 14 mph 1014.5mb 81f
2:48am 7 11 mph 1014.6mb 81f
1:54am 8 10 mph 1014.8mb 81f
1:48am 7 10 mph 1014.9mb 81f
12:54am 6 8 mph 1015.5mb 80f
12:48am 6 13 mph 1015.6mb 80f
Sat 07/22 11:54pm 6 8 mph 1015.7mb 82f
11:48pm 6 8 mph 1015.7mb 82f
10:54pm 9 11 mph 1015.8mb 82f
10:48pm 7 10 mph 1015.7mb 82f
9:54pm 9 11 mph 1015.8mb 83f
9:48pm 8 10 mph 1015.8mb 83f
8:54pm 13 16 mph 1015.6mb 84f
8:48pm 13 15 mph 1015.6mb 84f
7:54pm 10 14 mph 1015.6mb 84f
7:48pm 11 15 mph 1015.7mb 84f
6:54pm 11 16 mph 1015.3mb 84f
6:48pm 13 16 mph 1015.3mb 84f
5:54pm 11 15 mph 1015.2mb 84f
5:48pm 10 14 mph 1015.2mb 84f
4:54pm 8 13 mph 1015.2mb 84f
4:48pm 10 14 mph 1015.2mb 84f
3:54pm 3 6 mph 1015.3mb 83f
3:48pm 5 8 mph 1015.2mb 83f
2:54pm 11 16 mph 1015.5mb 84f
2:48pm 8 11 mph 1015.7mb 84f
1:54pm 8 11 mph 1016.3mb 83f
1:48pm 10 14 mph 1016.4mb 84f
12:54pm 10 15 mph 1016.6mb 86f
12:48pm 8 11 mph 1016.9mb 86f
11:54am 8 10 mph 1016.9mb 86f
11:48am 7 9 mph 1016.9mb 86f
10:54am 3 5 mph 1017.4mb 84f
10:48am 3 5 mph 1017.3mb 84f
9:54am 5 7 mph 1017.7mb 85f
9:48am 5 6 mph 1017.6mb 85f
8:54am 8 10 mph 1017.8mb 83f
8:48am 7 8 mph 1017.8mb 83f
7:54am 3 5 mph 1017.3mb 80f
7:48am 2 5 mph 1017.3mb 80f
6:54am 3 6 mph 1017mb 77f
6:48am 5 7 mph 1016.9mb 76f
5:54am 3 6 mph 1016.4mb 79f
5:48am 3 5 mph 1016.3mb 79f
4:54am 3 5 mph 1015.9mb 80f
4:48am 3 7 mph 1015.8mb 79f
3:54am 3 6 mph 1015.4mb 78f
3:48am 3 6 mph 1015.3mb 78f
2:54am 2 5 mph 1015mb 81f
2:48am 3 7 mph 1015mb 81f
1:54am 2 3 mph 1015.4mb 78f
1:48am 2 3 mph 1015.4mb 78f
12:54am 3 5 mph 1016.2mb 77f